X  Chiuso Dati meteorologici dell'aviazione (METAR)     LIML Milano Linate Airport
Temperatura
24°C Temperatura
17°C Punto di rugiada
65% Umidità



Vento
11 KM/O
7 MPH
3 M/S
6 KTS



160°
SSE
Condizioni attuali

Nuvole per lo più sparse Nuvole per lo più sparse
Pressione 1011.92 (hPa) - 29.88 (inHg)
Visibilità 6.2 (miglio) - 10 (km)
Aeroporto
Codice-Aeroporto LIML

Posizione: Milano Linate Airport
Distanza: 6 (km)

Metar:
LIML 021820Z 16006KT 110V190 9999 SCT030 24/17 Q1012 NOSIG

Ore: 02-08-2021 20:20 CEST